Time;durP1;ratioP1;P1;durP2;ratioP2;P2;SDS_P1;SDS_P2;PMS_P1;PMS_P2;Temp;Humidity;BMP_temperature;BMP_pressure;BME280_temperature;BME280_humidity;BME280_pressure;Samples;Min_cycle;Max_cycle;Signal;HPM_P1;HPM_P2
2022/10/27 00:01:50;;;;;;;;;;;13.10;99.90;;;;;;5027305;28;19971;-65
2022/10/27 00:04:18;;;;;;;;;;;13.00;99.90;;;;;;5031854;28;20719;-65
2022/10/27 00:06:45;;;;;;;;;;;13.10;99.90;;;;;;5029924;28;19971;-64
2022/10/27 00:09:14;;;;;;;;;;;13.10;99.90;;;;;;5028933;28;19978;-65
2022/10/27 00:11:42;;;;;;;;;;;13.10;99.90;;;;;;5028022;28;19970;-65
2022/10/27 00:14:10;;;;;;;;;;;13.00;99.90;;;;;;5025995;28;19972;-65
2022/10/27 00:16:38;;;;;;;;;;;13.00;99.90;;;;;;5025732;28;19964;-65
2022/10/27 00:19:05;;;;;;;;;;;13.00;99.90;;;;;;5025418;28;19974;-65
2022/10/27 00:21:33;;;;;;;;;;;13.10;99.90;;;;;;5025660;28;19968;-65
2022/10/27 00:24:01;;;;;;;;;;;13.10;99.90;;;;;;5039254;28;19975;-65
2022/10/27 00:26:30;;;;;;;;;;;13.20;99.90;;;;;;5026105;28;20352;-66
2022/10/27 00:28:58;;;;;;;;;;;13.20;99.90;;;;;;5025476;28;19976;-66
2022/10/27 00:31:25;;;;;;;;;;;13.20;99.90;;;;;;5027559;28;19968;-65
2022/10/27 00:33:53;;;;;;;;;;;13.00;99.90;;;;;;5030238;28;19975;-65
2022/10/27 00:36:22;;;;;;;;;;;12.70;99.90;;;;;;5025746;28;19970;-65
2022/10/27 00:38:52;;;;;;;;;;;12.60;99.90;;;;;;5059927;22;20349;-61
2022/10/27 00:41:25;;;;;;;;;;;12.50;99.90;;;;;;5038320;28;19975;-62
2022/10/27 00:43:54;;;;;;;;;;;12.50;99.90;;;;;;5045695;28;19964;-62
2022/10/27 00:46:28;;;;;;;;;;;12.50;99.90;;;;;;5048002;28;19972;-62
2022/10/27 00:48:59;;;;;;;;;;;12.70;99.90;;;;;;5051409;28;19976;-62
2022/10/27 00:51:27;;;;;;;;;;;12.70;99.90;;;;;;5048521;28;19975;-62
2022/10/27 00:53:55;;;;;;;;;;;12.70;99.90;;;;;;5050297;28;19964;-61
2022/10/27 00:56:23;;;;;;;;;;;12.80;99.90;;;;;;5047326;28;19973;-62
2022/10/27 00:58:51;;;;;;;;;;;12.70;99.90;;;;;;5051414;28;19968;-61
2022/10/27 01:01:20;;;;;;;;;;;12.80;99.90;;;;;;5052422;28;19974;-62
2022/10/27 01:03:49;;;;;;;;;;;12.60;99.90;;;;;;5061964;28;19964;-62
2022/10/27 01:06:16;;;;;;;;;;;12.50;99.90;;;;;;5047857;28;20517;-62
2022/10/27 01:08:44;;;;;;;;;;;12.50;99.90;;;;;;5051536;28;20067;-62
2022/10/27 01:11:12;;;;;;;;;;;12.40;99.90;;;;;;5047090;28;19964;-61
2022/10/27 01:13:40;;;;;;;;;;;12.50;99.90;;;;;;5047336;28;20055;-62
2022/10/27 01:16:14;;;;;;;;;;;12.50;99.90;;;;;;5046855;28;20425;-62
2022/10/27 01:18:48;;;;;;;;;;;12.50;99.90;;;;;;5033242;28;19964;-62
2022/10/27 01:21:27;;;;;;;;;;;12.50;99.90;;;;;;5040765;28;19972;-62
2022/10/27 01:24:12;;;;;;;;;;;12.50;99.90;;;;;;5046319;28;19973;-62
2022/10/27 01:26:47;;;;;;;;;;;12.50;99.90;;;;;;5024969;28;19963;-62
2022/10/27 01:29:40;;;;;;;;;;;12.50;99.90;;;;;;5055651;28;20004;-62
2022/10/27 01:32:16;;;;;;;;;;;12.50;99.90;;;;;;5049670;28;20447;-62
2022/10/27 01:34:46;;;;;;;;;;;12.60;99.90;;;;;;5040040;28;19972;-62
2022/10/27 01:37:19;;;;;;;;;;;12.70;99.90;;;;;;5046506;28;19964;-63
2022/10/27 01:39:49;;;;;;;;;;;12.80;99.90;;;;;;5049511;28;19994;-62
2022/10/27 01:42:21;;;;;;;;;;;12.80;99.90;;;;;;5055436;28;19968;-61
2022/10/27 01:44:50;;;;;;;;;;;12.80;99.90;;;;;;5050620;28;19964;-62
2022/10/27 01:47:20;;;;;;;;;;;12.90;99.90;;;;;;5051072;28;19974;-63
2022/10/27 01:49:48;;;;;;;;;;;12.90;99.90;;;;;;5050898;28;20431;-63
2022/10/27 01:52:34;;;;;;;;;;;12.90;99.90;;;;;;5046718;28;19978;-62
2022/10/27 01:55:02;;;;;;;;;;;13.00;99.90;;;;;;5049669;28;19976;-62
2022/10/27 01:57:35;;;;;;;;;;;12.90;99.90;;;;;;5054144;28;19968;-62
2022/10/27 02:00:04;;;;;;;;;;;12.90;99.90;;;;;;5053427;28;20008;-62
2022/10/27 02:02:39;;;;;;;;;;;12.80;99.90;;;;;;5045165;28;19994;-63
2022/10/27 02:05:10;;;;;;;;;;;12.80;99.90;;;;;;5057490;28;19972;-61
2022/10/27 02:07:46;;;;;;;;;;;12.80;99.90;;;;;;5045867;28;19968;-62
2022/10/27 02:10:16;;;;;;;;;;;12.90;99.90;;;;;;5045219;28;20356;-62
2022/10/27 02:12:45;;;;;;;;;;;12.90;99.90;;;;;;5049247;28;19965;-62
2022/10/27 02:15:19;;;;;;;;;;;12.90;99.90;;;;;;5049041;28;20467;-62
2022/10/27 02:17:49;;;;;;;;;;;12.90;99.90;;;;;;5036105;28;19979;-62
2022/10/27 02:20:20;;;;;;;;;;;12.90;99.90;;;;;;5051281;28;19972;-62
2022/10/27 02:22:49;;;;;;;;;;;12.90;99.90;;;;;;5047219;28;20441;-62
2022/10/27 02:25:20;;;;;;;;;;;12.80;99.90;;;;;;5052170;28;19964;-62
2022/10/27 02:27:49;;;;;;;;;;;12.80;99.90;;;;;;5048056;28;19976;-62
2022/10/27 02:30:16;;;;;;;;;;;12.80;99.90;;;;;;5047956;28;19974;-62
2022/10/27 02:32:44;;;;;;;;;;;12.70;99.90;;;;;;5052476;28;19968;-63
2022/10/27 02:35:15;;;;;;;;;;;12.70;99.90;;;;;;5050380;28;19972;-62
2022/10/27 02:37:43;;;;;;;;;;;12.80;99.90;;;;;;5038289;28;20465;-63
2022/10/27 02:40:11;;;;;;;;;;;12.80;99.90;;;;;;5047188;28;19968;-62
2022/10/27 02:42:39;;;;;;;;;;;12.80;99.90;;;;;;5046663;28;19963;-62
2022/10/27 02:45:07;;;;;;;;;;;12.80;99.90;;;;;;5036917;28;19976;-62
2022/10/27 02:47:35;;;;;;;;;;;12.80;99.90;;;;;;5052483;28;20290;-62
2022/10/27 02:50:02;;;;;;;;;;;12.80;99.90;;;;;;5053061;28;19968;-62
2022/10/27 02:52:31;;;;;;;;;;;12.80;99.90;;;;;;5049538;28;19964;-62
2022/10/27 02:54:59;;;;;;;;;;;12.70;99.90;;;;;;5045507;28;19977;-62
2022/10/27 02:57:27;;;;;;;;;;;12.70;99.90;;;;;;5047167;28;19972;-61
2022/10/27 02:59:54;;;;;;;;;;;12.70;99.90;;;;;;5047550;28;19964;-62
2022/10/27 03:02:22;;;;;;;;;;;12.60;99.90;;;;;;5052153;28;20063;-62
2022/10/27 03:04:50;;;;;;;;;;;12.60;99.90;;;;;;5049755;28;19976;-62
2022/10/27 03:07:19;;;;;;;;;;;12.60;99.90;;;;;;5053462;28;19990;-62
2022/10/27 03:09:48;;;;;;;;;;;12.60;99.90;;;;;;5030516;28;20480;-62
2022/10/27 03:12:16;;;;;;;;;;;12.30;99.90;;;;;;5052114;28;19969;-62
2022/10/27 03:14:43;;;;;;;;;;;12.20;99.90;;;;;;5051887;28;20058;-62
2022/10/27 03:17:11;;;;;;;;;;;12.10;99.90;;;;;;5056301;28;19972;-62
2022/10/27 03:19:39;;;;;;;;;;;12.00;99.90;;;;;;5034306;28;19968;-62
2022/10/27 03:22:06;;;;;;;;;;;12.00;99.90;;;;;;5047864;28;20449;-62
2022/10/27 03:24:34;;;;;;;;;;;11.90;99.90;;;;;;5037338;28;20353;-62
2022/10/27 03:27:03;;;;;;;;;;;11.90;99.90;;;;;;5051803;28;19968;-62
2022/10/27 03:29:31;;;;;;;;;;;11.90;99.90;;;;;;5046865;28;20570;-62
2022/10/27 03:31:59;;;;;;;;;;;12.00;99.90;;;;;;5051888;28;19972;-63
2022/10/27 03:34:26;;;;;;;;;;;12.10;99.90;;;;;;5054958;28;19972;-62
2022/10/27 03:36:54;;;;;;;;;;;12.10;99.90;;;;;;5048988;28;19971;-62
2022/10/27 03:39:22;;;;;;;;;;;12.20;99.90;;;;;;5051848;28;19969;-62
2022/10/27 03:41:49;;;;;;;;;;;12.20;99.90;;;;;;5056080;28;20401;-62
2022/10/27 03:44:18;;;;;;;;;;;12.20;99.90;;;;;;5054248;28;20376;-63
2022/10/27 03:46:46;;;;;;;;;;;12.10;99.90;;;;;;5053392;28;19964;-63
2022/10/27 03:49:14;;;;;;;;;;;12.10;99.90;;;;;;5049853;28;19964;-62
2022/10/27 03:51:41;;;;;;;;;;;12.10;99.90;;;;;;5050290;28;19972;-63
2022/10/27 03:54:09;;;;;;;;;;;12.20;99.90;;;;;;5052478;28;19974;-62
2022/10/27 03:56:37;;;;;;;;;;;12.10;99.90;;;;;;5050104;28;19964;-63
2022/10/27 03:59:04;;;;;;;;;;;12.00;99.90;;;;;;5046156;28;19975;-63
2022/10/27 04:01:34;;;;;;;;;;;12.00;99.90;;;;;;5045656;28;20429;-62
2022/10/27 04:04:03;;;;;;;;;;;12.00;99.90;;;;;;5049049;28;20433;-62
2022/10/27 04:06:31;;;;;;;;;;;11.90;99.90;;;;;;5040790;28;19968;-62
2022/10/27 04:08:58;;;;;;;;;;;11.90;99.90;;;;;;5046145;28;19972;-62
2022/10/27 04:11:26;;;;;;;;;;;11.90;99.90;;;;;;5050889;28;19972;-62
2022/10/27 04:13:54;;;;;;;;;;;11.80;99.90;;;;;;5049566;28;19964;-62
2022/10/27 04:16:22;;;;;;;;;;;11.90;99.90;;;;;;5046384;28;20467;-62
2022/10/27 04:18:51;;;;;;;;;;;12.10;99.90;;;;;;5053577;28;19968;-62
2022/10/27 04:21:18;;;;;;;;;;;12.20;99.90;;;;;;5045145;28;20664;-62
2022/10/27 04:23:46;;;;;;;;;;;12.20;99.90;;;;;;5046158;28;20421;-62
2022/10/27 04:26:14;;;;;;;;;;;12.20;99.90;;;;;;5048212;28;19968;-62
2022/10/27 04:28:42;;;;;;;;;;;12.20;99.90;;;;;;5047283;28;19975;-62
2022/10/27 04:31:09;;;;;;;;;;;12.30;99.90;;;;;;5044716;28;19967;-62
2022/10/27 04:33:37;;;;;;;;;;;12.30;99.90;;;;;;5049064;28;20302;-62
2022/10/27 04:36:07;;;;;;;;;;;12.10;99.90;;;;;;5049334;28;19968;-62
2022/10/27 04:38:34;;;;;;;;;;;12.10;99.90;;;;;;5042302;28;19964;-62
2022/10/27 04:41:04;;;;;;;;;;;12.00;99.90;;;;;;5051268;28;20056;-62
2022/10/27 04:43:32;;;;;;;;;;;11.80;99.90;;;;;;5049145;28;19983;-62
2022/10/27 04:45:59;;;;;;;;;;;11.90;99.90;;;;;;5047761;28;20063;-62
2022/10/27 04:48:27;;;;;;;;;;;11.90;99.90;;;;;;5051803;28;19970;-62
2022/10/27 04:50:55;;;;;;;;;;;11.90;99.90;;;;;;5050862;28;19970;-61
2022/10/27 04:53:24;;;;;;;;;;;11.80;99.90;;;;;;5051461;28;19971;-62
2022/10/27 04:55:53;;;;;;;;;;;11.80;99.90;;;;;;5050314;28;19979;-62
2022/10/27 04:58:21;;;;;;;;;;;11.80;99.90;;;;;;5043663;28;19972;-62
2022/10/27 05:00:49;;;;;;;;;;;11.80;99.90;;;;;;5038651;28;20030;-61
2022/10/27 05:03:16;;;;;;;;;;;11.80;99.90;;;;;;5050393;28;19968;-62
2022/10/27 05:05:44;;;;;;;;;;;11.70;99.90;;;;;;5054256;28;20059;-62
2022/10/27 05:08:12;;;;;;;;;;;11.60;99.90;;;;;;5051073;28;19990;-62
2022/10/27 05:10:41;;;;;;;;;;;11.50;99.90;;;;;;5048339;28;19994;-62
2022/10/27 05:13:09;;;;;;;;;;;11.40;99.90;;;;;;5053912;28;19978;-62
2022/10/27 05:15:36;;;;;;;;;;;11.40;99.90;;;;;;5048378;28;19964;-62
2022/10/27 05:18:04;;;;;;;;;;;11.30;99.90;;;;;;5038307;28;20478;-62
2022/10/27 05:20:36;;;;;;;;;;;11.20;99.90;;;;;;5040173;28;20788;-62
2022/10/27 05:23:04;;;;;;;;;;;11.10;99.90;;;;;;5022203;28;20449;-63
2022/10/27 05:25:32;;;;;;;;;;;11.10;99.90;;;;;;5063037;28;20387;-64
2022/10/27 05:28:05;;;;;;;;;;;11.10;99.90;;;;;;5044050;28;20016;-64
2022/10/27 05:30:33;;;;;;;;;;;11.10;99.90;;;;;;5064574;28;20456;-63
2022/10/27 05:33:01;;;;;;;;;;;11.10;99.90;;;;;;5051119;28;19968;-61
2022/10/27 05:35:28;;;;;;;;;;;11.10;99.90;;;;;;5049342;28;19968;-61
2022/10/27 05:37:56;;;;;;;;;;;11.20;99.90;;;;;;5041850;28;19972;-62
2022/10/27 05:40:24;;;;;;;;;;;11.30;99.90;;;;;;5048467;28;19976;-62
2022/10/27 05:42:52;;;;;;;;;;;11.20;99.90;;;;;;5047138;28;19971;-63
2022/10/27 05:45:22;;;;;;;;;;;11.20;99.90;;;;;;5042152;28;19972;-62
2022/10/27 05:47:56;;;;;;;;;;;11.20;99.90;;;;;;5049991;28;19972;-62
2022/10/27 05:50:24;;;;;;;;;;;11.20;99.90;;;;;;5050452;28;20480;-62
2022/10/27 05:52:52;;;;;;;;;;;11.20;99.90;;;;;;5048360;28;19964;-62
2022/10/27 05:55:20;;;;;;;;;;;11.10;99.90;;;;;;5049958;28;20008;-62
2022/10/27 05:57:55;;;;;;;;;;;11.20;99.90;;;;;;5057105;28;20377;-62
2022/10/27 06:00:25;;;;;;;;;;;11.20;99.90;;;;;;5054037;28;19964;-62
2022/10/27 06:02:55;;;;;;;;;;;11.10;99.90;;;;;;5052044;28;20805;-61
2022/10/27 06:05:23;;;;;;;;;;;11.20;99.90;;;;;;5047072;28;20456;-61
2022/10/27 06:07:51;;;;;;;;;;;11.10;99.90;;;;;;5033323;28;19968;-61
2022/10/27 06:10:19;;;;;;;;;;;11.30;99.90;;;;;;5050159;28;20572;-61
2022/10/27 06:12:47;;;;;;;;;;;11.30;99.90;;;;;;5054275;28;19986;-61
2022/10/27 06:15:14;;;;;;;;;;;11.30;99.90;;;;;;5046870;28;19974;-61
2022/10/27 06:17:43;;;;;;;;;;;11.30;99.90;;;;;;5050627;28;19968;-61
2022/10/27 06:20:11;;;;;;;;;;;11.30;99.90;;;;;;5048973;28;19990;-62
2022/10/27 06:22:39;;;;;;;;;;;11.40;99.90;;;;;;5047238;28;19964;-61
2022/10/27 06:25:07;;;;;;;;;;;11.40;99.90;;;;;;5042903;28;20449;-61
2022/10/27 06:27:35;;;;;;;;;;;11.40;99.90;;;;;;5052944;28;19964;-61
2022/10/27 06:30:02;;;;;;;;;;;11.40;99.90;;;;;;5041718;28;19968;-61
2022/10/27 06:32:30;;;;;;;;;;;11.40;99.90;;;;;;5049338;28;19968;-61
2022/10/27 06:34:59;;;;;;;;;;;11.40;99.90;;;;;;5045443;28;20392;-61
2022/10/27 06:37:27;;;;;;;;;;;11.40;99.90;;;;;;5053148;28;19964;-61
2022/10/27 06:39:55;;;;;;;;;;;11.50;99.90;;;;;;5066613;22;19972;-64
2022/10/27 06:42:23;;;;;;;;;;;11.50;99.90;;;;;;5052486;28;20067;-64
2022/10/27 06:44:51;;;;;;;;;;;11.60;99.90;;;;;;5049118;28;20194;-64
2022/10/27 06:47:19;;;;;;;;;;;11.60;99.90;;;;;;5052217;28;20437;-65
2022/10/27 06:49:46;;;;;;;;;;;11.70;99.90;;;;;;5050851;28;19991;-65
2022/10/27 06:52:15;;;;;;;;;;;11.70;99.90;;;;;;5043442;28;19990;-65
2022/10/27 06:54:43;;;;;;;;;;;11.80;99.90;;;;;;5034539;28;20083;-65
2022/10/27 06:57:11;;;;;;;;;;;11.90;99.90;;;;;;5040444;28;19968;-65
2022/10/27 06:59:39;;;;;;;;;;;11.90;99.90;;;;;;5037378;28;19987;-65
2022/10/27 07:02:06;;;;;;;;;;;12.00;99.90;;;;;;5039118;28;19964;-64
2022/10/27 07:04:34;;;;;;;;;;;12.10;99.90;;;;;;5036167;28;19964;-64
2022/10/27 07:07:02;;;;;;;;;;;12.10;99.90;;;;;;5023480;28;20068;-66
2022/10/27 07:09:31;;;;;;;;;;;12.20;99.90;;;;;;5024946;28;19971;-65
2022/10/27 07:11:59;;;;;;;;;;;12.40;99.90;;;;;;5026647;28;20718;-65
2022/10/27 07:14:26;;;;;;;;;;;12.40;99.90;;;;;;5026927;28;19969;-65
2022/10/27 07:16:54;;;;;;;;;;;12.50;99.90;;;;;;5023660;28;19971;-66
2022/10/27 07:19:22;;;;;;;;;;;12.60;99.90;;;;;;5025449;28;19968;-64
2022/10/27 07:21:49;;;;;;;;;;;12.70;99.90;;;;;;5013948;28;19982;-65
2022/10/27 07:24:17;;;;;;;;;;;12.80;99.90;;;;;;5014752;28;20350;-65
2022/10/27 07:26:46;;;;;;;;;;;13.00;99.90;;;;;;5039252;28;19964;-65
2022/10/27 07:29:14;;;;;;;;;;;13.00;99.90;;;;;;5038899;28;19971;-64
2022/10/27 07:31:43;;;;;;;;;;;13.10;99.90;;;;;;5026334;28;19972;-65
2022/10/27 07:34:11;;;;;;;;;;;13.10;99.90;;;;;;5021686;28;19980;-65
2022/10/27 07:36:39;;;;;;;;;;;13.10;99.90;;;;;;5023121;28;19979;-65
2022/10/27 07:39:07;;;;;;;;;;;13.20;99.90;;;;;;5024152;28;19970;-67
2022/10/27 07:41:34;;;;;;;;;;;13.20;99.90;;;;;;5022877;28;20475;-64
2022/10/27 07:44:03;;;;;;;;;;;13.20;99.90;;;;;;5024285;28;20360;-65
2022/10/27 07:46:31;;;;;;;;;;;13.30;99.90;;;;;;5024546;28;19972;-64
2022/10/27 07:48:59;;;;;;;;;;;13.30;99.90;;;;;;5013706;28;19973;-64
2022/10/27 07:51:27;;;;;;;;;;;13.40;99.90;;;;;;5013117;28;19969;-65
2022/10/27 07:53:54;;;;;;;;;;;13.50;99.90;;;;;;5028696;28;19965;-64
2022/10/27 07:56:24;;;;;;;;;;;13.60;99.90;;;;;;5043333;28;20035;-64
2022/10/27 07:58:52;;;;;;;;;;;13.70;99.90;;;;;;5045697;28;19968;-64
2022/10/27 08:01:21;;;;;;;;;;;13.90;99.90;;;;;;5023247;28;19971;-64
2022/10/27 08:03:49;;;;;;;;;;;14.00;99.90;;;;;;5035227;28;20100;-65
2022/10/27 08:06:18;;;;;;;;;;;14.10;99.90;;;;;;5032816;28;20439;-65
2022/10/27 08:08:46;;;;;;;;;;;14.20;99.90;;;;;;5032514;28;19973;-65
2022/10/27 08:11:13;;;;;;;;;;;14.30;99.90;;;;;;5031832;28;20074;-65
2022/10/27 08:13:41;;;;;;;;;;;14.40;99.90;;;;;;5017335;28;19963;-65
2022/10/27 08:16:09;;;;;;;;;;;14.50;99.90;;;;;;5032763;28;19968;-65
2022/10/27 08:18:38;;;;;;;;;;;14.70;99.90;;;;;;5032649;28;20318;-65
2022/10/27 08:21:06;;;;;;;;;;;14.90;99.90;;;;;;5032258;28;19968;-65
2022/10/27 08:23:33;;;;;;;;;;;15.00;99.90;;;;;;5037148;28;19973;-64
2022/10/27 08:26:01;;;;;;;;;;;15.20;99.90;;;;;;5044115;28;19972;-65
2022/10/27 08:28:29;;;;;;;;;;;15.30;99.90;;;;;;5045430;28;19965;-64
2022/10/27 08:30:58;;;;;;;;;;;15.60;99.90;;;;;;5018954;28;19976;-64
2022/10/27 08:33:26;;;;;;;;;;;15.90;99.90;;;;;;5032219;28;20087;-65
2022/10/27 08:35:55;;;;;;;;;;;16.00;99.90;;;;;;5032119;28;19973;-65
2022/10/27 08:38:23;;;;;;;;;;;16.20;99.90;;;;;;5032123;28;20475;-64
2022/10/27 08:40:57;;;;;;;;;;;16.30;99.90;;;;;;5031809;28;19967;-65
2022/10/27 08:43:41;;;;;;;;;;;16.50;99.90;;;;;;5032227;28;20405;-65
2022/10/27 08:46:14;;;;;;;;;;;16.70;99.90;;;;;;5023253;28;19971;-65
2022/10/27 08:48:43;;;;;;;;;;;16.90;99.90;;;;;;5012379;28;19978;-64
2022/10/27 08:51:13;;;;;;;;;;;17.00;99.90;;;;;;5012013;28;19968;-64
2022/10/27 08:53:42;;;;;;;;;;;17.10;99.90;;;;;;5024089;28;19963;-65
2022/10/27 08:56:10;;;;;;;;;;;17.20;99.90;;;;;;5043643;28;19967;-65
2022/10/27 08:58:39;;;;;;;;;;;17.40;99.90;;;;;;5052041;28;19976;-65
2022/10/27 09:01:13;;;;;;;;;;;17.50;99.90;;;;;;5051531;28;19967;-66
2022/10/27 09:03:52;;;;;;;;;;;17.40;99.90;;;;;;5034919;28;19968;-65
2022/10/27 09:06:23;;;;;;;;;;;17.60;99.90;;;;;;5032013;28;20347;-65
2022/10/27 09:08:57;;;;;;;;;;;17.70;99.90;;;;;;5032028;28;19974;-65
2022/10/27 09:11:29;;;;;;;;;;;17.80;99.90;;;;;;5031567;28;20351;-65
2022/10/27 09:14:07;;;;;;;;;;;17.90;99.90;;;;;;5031976;28;19971;-65
2022/10/27 09:16:38;;;;;;;;;;;18.10;99.90;;;;;;5031885;28;20459;-64
2022/10/27 09:19:08;;;;;;;;;;;18.20;99.90;;;;;;5031084;28;19968;-64
2022/10/27 09:21:38;;;;;;;;;;;18.30;99.90;;;;;;5031416;28;19967;-64
2022/10/27 09:24:11;;;;;;;;;;;18.50;99.90;;;;;;5041043;28;19973;-64
2022/10/27 09:26:40;;;;;;;;;;;18.50;99.90;;;;;;5043656;28;20423;-65
2022/10/27 09:29:14;;;;;;;;;;;18.70;99.90;;;;;;5051707;28;19974;-64
2022/10/27 09:31:44;;;;;;;;;;;19.00;99.90;;;;;;5051485;28;19971;-65
2022/10/27 09:34:16;;;;;;;;;;;19.00;99.90;;;;;;5040452;28;20363;-65
2022/10/27 09:36:45;;;;;;;;;;;19.10;99.90;;;;;;5011902;28;19976;-65
2022/10/27 09:39:13;;;;;;;;;;;19.20;99.90;;;;;;5011917;28;19971;-65
2022/10/27 09:41:41;;;;;;;;;;;19.30;99.90;;;;;;5011489;28;20066;-65
2022/10/27 09:44:16;;;;;;;;;;;19.40;99.90;;;;;;5011967;28;19967;-65
2022/10/27 09:46:45;;;;;;;;;;;19.60;99.90;;;;;;5015439;28;19971;-65
2022/10/27 09:49:13;;;;;;;;;;;19.70;99.90;;;;;;5015645;28;20058;-65
2022/10/27 09:51:43;;;;;;;;;;;19.90;99.90;;;;;;5021166;28;20442;-65
2022/10/27 09:54:27;;;;;;;;;;;20.00;99.90;;;;;;5045382;28;20061;-66
2022/10/27 09:56:55;;;;;;;;;;;20.10;99.90;;;;;;5044172;28;20347;-65
2022/10/27 09:59:23;;;;;;;;;;;20.40;99.90;;;;;;5055224;28;20548;-65
2022/10/27 10:01:56;;;;;;;;;;;20.50;99.90;;;;;;5054942;28;19967;-65
2022/10/27 10:04:26;;;;;;;;;;;20.40;99.90;;;;;;5055067;28;20497;-65
2022/10/27 10:06:54;;;;;;;;;;;20.30;99.90;;;;;;5036721;28;19995;-65
2022/10/27 10:09:25;;;;;;;;;;;20.50;99.90;;;;;;5015348;28;19994;-65
2022/10/27 10:12:11;;;;;;;;;;;20.60;99.90;;;;;;5015168;28;20007;-65
2022/10/27 10:14:39;;;;;;;;;;;20.60;99.90;;;;;;5015286;28;20071;-65
2022/10/27 10:17:16;;;;;;;;;;;20.80;99.90;;;;;;5015210;28;20446;-64
2022/10/27 10:19:46;;;;;;;;;;;21.00;99.90;;;;;;5015005;28;19968;-65
2022/10/27 10:22:19;;;;;;;;;;;21.40;99.90;;;;;;5015023;28;19978;-65
2022/10/27 10:24:48;;;;;;;;;;;21.50;99.90;;;;;;5034330;28;20069;-66
2022/10/27 10:27:24;;;;;;;;;;;21.60;99.90;;;;;;5034623;28;20428;-65
2022/10/27 10:29:51;;;;;;;;;;;22.10;99.90;;;;;;5034427;28;20009;-65
2022/10/27 10:32:22;;;;;;;;;;;22.60;99.90;;;;;;5034269;28;19978;-65
2022/10/27 10:34:52;;;;;;;;;;;22.80;99.90;;;;;;5034673;28;20011;-65
2022/10/27 10:37:29;;;;;;;;;;;23.10;99.90;;;;;;5034557;28;20067;-65
2022/10/27 10:40:24;;;;;;;;;;;23.30;99.90;;;;;;5027953;28;19967;-65
2022/10/27 10:43:00;;;;;;;;;;;23.50;99.90;;;;;;5028321;28;20085;-65
2022/10/27 10:45:29;;;;;;;;;;;23.70;99.90;;;;;;5034357;28;20063;-65
2022/10/27 10:47:59;;;;;;;;;;;24.00;99.90;;;;;;5034275;28;19976;-65
2022/10/27 10:50:27;;;;;;;;;;;24.30;99.90;;;;;;5034118;28;20075;-65
2022/10/27 10:52:56;;;;;;;;;;;24.50;99.90;;;;;;5034307;28;19980;-65
2022/10/27 10:55:27;;;;;;;;;;;24.60;99.90;;;;;;5038286;28;19975;-65
2022/10/27 10:57:56;;;;;;;;;;;24.90;99.90;;;;;;5047232;28;19968;-65
2022/10/27 11:00:24;;;;;;;;;;;24.70;99.90;;;;;;5053831;28;19976;-65
2022/10/27 11:02:54;;;;;;;;;;;25.00;99.90;;;;;;5053999;28;19972;-65
2022/10/27 11:05:28;;;;;;;;;;;25.20;99.90;;;;;;5053777;28;20463;-65
2022/10/27 11:07:56;;;;;;;;;;;25.30;99.90;;;;;;5054004;28;20067;-65
2022/10/27 11:10:27;;;;;;;;;;;25.10;99.90;;;;;;5033336;28;19969;-65
2022/10/27 11:12:56;;;;;;;;;;;24.70;99.90;;;;;;5034120;28;20080;-65
2022/10/27 11:15:26;;;;;;;;;;;24.90;99.90;;;;;;5033539;28;19969;-65
2022/10/27 11:17:55;;;;;;;;;;;25.00;99.90;;;;;;5033725;28;20079;-65
2022/10/27 11:20:25;;;;;;;;;;;25.30;99.90;;;;;;5033533;28;20372;-66
2022/10/27 11:22:53;;;;;;;;;;;24.90;99.90;;;;;;5033031;28;19969;-65
2022/10/27 11:25:22;;;;;;;;;;;24.90;99.90;;;;;;5041742;28;19968;-65
2022/10/27 11:28:00;;;;;;;;;;;24.80;99.90;;;;;;5047234;28;20047;-65
2022/10/27 11:30:28;;;;;;;;;;;24.60;99.90;;;;;;5053150;28;19968;-65
2022/10/27 11:33:02;;;;;;;;;;;24.80;99.90;;;;;;5053639;28;19972;-65
2022/10/27 11:35:32;;;;;;;;;;;25.00;99.90;;;;;;5053157;28;20069;-65
2022/10/27 11:38:03;;;;;;;;;;;25.30;99.90;;;;;;5044569;28;19969;-65
2022/10/27 11:40:40;;;;;;;;;;;25.40;99.90;;;;;;5013278;28;19968;-65
2022/10/27 11:43:11;;;;;;;;;;;25.70;99.90;;;;;;5013485;28;19991;-65
2022/10/27 11:45:43;;;;;;;;;;;25.40;99.90;;;;;;5013560;28;19969;-65
2022/10/27 11:48:13;;;;;;;;;;;25.30;99.90;;;;;;5013674;28;20364;-65
2022/10/27 11:50:45;;;;;;;;;;;25.70;99.90;;;;;;5013242;28;19977;-65
2022/10/27 11:53:13;;;;;;;;;;;25.70;99.90;;;;;;5020558;28;20015;-65
2022/10/27 11:55:46;;;;;;;;;;;25.80;99.90;;;;;;5041000;28;19969;-65
2022/10/27 11:58:19;;;;;;;;;;;25.90;99.90;;;;;;5049645;28;19968;-65
2022/10/27 12:00:52;;;;;;;;;;;25.80;99.90;;;;;;5052698;28;20356;-65
2022/10/27 12:03:30;;;;;;;;;;;25.90;99.90;;;;;;5052980;28;20076;-65
2022/10/27 12:05:59;;;;;;;;;;;26.30;99.90;;;;;;5052755;28;20063;-65
2022/10/27 12:08:31;;;;;;;;;;;26.20;99.90;;;;;;5040085;28;19968;-65
2022/10/27 12:11:07;;;;;;;;;;;26.50;99.90;;;;;;5032401;28;19973;-65
2022/10/27 12:13:41;;;;;;;;;;;26.30;99.90;;;;;;5032843;28;19972;-65
2022/10/27 12:16:13;;;;;;;;;;;26.60;99.90;;;;;;5032668;28;19976;-65
2022/10/27 12:18:43;;;;;;;;;;;26.80;99.90;;;;;;5032754;28;19975;-65
2022/10/27 12:21:14;;;;;;;;;;;26.90;99.90;;;;;;5032645;28;19972;-65
2022/10/27 12:23:44;;;;;;;;;;;26.90;99.90;;;;;;5016281;28;19969;-65
2022/10/27 12:26:14;;;;;;;;;;;26.30;99.90;;;;;;5037329;28;20071;-65
2022/10/27 12:28:44;;;;;;;;;;;26.30;99.90;;;;;;5052330;28;20014;-65
2022/10/27 12:31:14;;;;;;;;;;;26.20;99.90;;;;;;5052101;28;19968;-65
2022/10/27 12:33:46;;;;;;;;;;;26.10;99.90;;;;;;5052448;28;20449;-65
2022/10/27 12:36:17;;;;;;;;;;;25.80;99.90;;;;;;5052314;28;19968;-65
2022/10/27 12:38:48;;;;;;;;;;;25.80;99.90;;;;;;5014704;28;20468;-65
2022/10/27 12:41:21;;;;;;;;;;;25.70;99.90;;;;;;5085970;23;20397;-64
2022/10/27 12:43:55;;;;;;;;;;;25.50;99.90;;;;;;5095245;28;20001;-64
2022/10/27 12:46:40;;;;;;;;;;;25.40;99.90;;;;;;5092531;28;20018;-64
2022/10/27 12:49:11;;;;;;;;;;;25.40;99.90;;;;;;5092659;28;19973;-64
2022/10/27 12:51:45;;;;;;;;;;;25.70;99.90;;;;;;5075900;28;20087;-64
2022/10/27 12:54:19;;;;;;;;;;;25.70;99.90;;;;;;5071815;28;19978;-64
2022/10/27 12:56:50;;;;;;;;;;;25.40;99.90;;;;;;5073404;28;19964;-64
2022/10/27 12:59:26;;;;;;;;;;;25.50;99.90;;;;;;5072075;28;19967;-64
2022/10/27 13:01:56;;;;;;;;;;;25.70;99.90;;;;;;5071970;28;20010;-64
2022/10/27 13:04:33;;;;;;;;;;;25.80;99.90;;;;;;5071662;28;19972;-64
2022/10/27 13:07:07;;;;;;;;;;;25.80;99.90;;;;;;5071952;28;20062;-64
2022/10/27 13:09:53;;;;;;;;;;;25.70;99.90;;;;;;5071813;28;19968;-63
2022/10/27 13:12:26;;;;;;;;;;;25.70;99.90;;;;;;5031694;28;19980;-64
2022/10/27 13:15:14;;;;;;;;;;;25.90;99.90;;;;;;5071700;28;19968;-64
2022/10/27 13:17:49;;;;;;;;;;;25.90;99.90;;;;;;5065735;28;19975;-64
2022/10/27 13:20:22;;;;;;;;;;;25.70;99.90;;;;;;5070857;28;19990;-64
2022/10/27 13:22:52;;;;;;;;;;;25.60;99.90;;;;;;5072045;28;19971;-64
2022/10/27 13:25:23;;;;;;;;;;;25.10;99.90;;;;;;5079981;28;19990;-64
2022/10/27 13:27:52;;;;;;;;;;;24.60;99.90;;;;;;5085453;28;20014;-64
2022/10/27 13:30:22;;;;;;;;;;;23.90;99.90;;;;;;5091718;28;19971;-62
2022/10/27 13:32:54;;;;;;;;;;;23.20;99.90;;;;;;5091942;28;20454;-62
2022/10/27 13:35:37;;;;;;;;;;;22.70;99.90;;;;;;5091793;28;20487;-62
2022/10/27 13:38:22;;;;;;;;;;;22.40;99.90;;;;;;5091778;28;19970;-62
2022/10/27 13:40:50;;;;;;;;;;;21.90;99.90;;;;;;5078927;28;19966;-62
2022/10/27 13:43:33;;;;;;;;;;;21.70;99.90;;;;;;5071554;28;20058;-62
2022/10/27 13:46:01;;;;;;;;;;;21.50;99.90;;;;;;5062745;28;20057;-62
2022/10/27 13:48:33;;;;;;;;;;;21.30;99.90;;;;;;5071568;28;20060;-62
2022/10/27 13:51:16;;;;;;;;;;;21.20;99.90;;;;;;5071239;28;19967;-62
2022/10/27 13:54:00;;;;;;;;;;;20.90;99.90;;;;;;5070090;28;20443;-62
2022/10/27 13:56:37;;;;;;;;;;;20.80;99.90;;;;;;5066814;28;20008;-63
2022/10/27 13:59:10;;;;;;;;;;;20.60;99.90;;;;;;5054418;28;20465;-63
2022/10/27 14:01:46;;;;;;;;;;;20.50;99.90;;;;;;5054272;28;20449;-62
2022/10/27 14:04:21;;;;;;;;;;;20.40;99.90;;;;;;5051406;28;20463;-62
2022/10/27 14:06:50;;;;;;;;;;;20.40;99.90;;;;;;5051501;28;20049;-62
2022/10/27 14:09:23;;;;;;;;;;;20.30;99.90;;;;;;5057443;28;20057;-62
2022/10/27 14:11:51;;;;;;;;;;;20.40;99.90;;;;;;5069853;28;20002;-62
2022/10/27 14:14:24;;;;;;;;;;;20.40;99.90;;;;;;5063200;28;20451;-61
2022/10/27 14:16:52;;;;;;;;;;;20.40;99.90;;;;;;5069182;28;20403;-62
2022/10/27 14:19:24;;;;;;;;;;;20.30;99.90;;;;;;5068686;28;19989;-63
2022/10/27 14:21:53;;;;;;;;;;;20.30;99.90;;;;;;5062988;28;19969;-63
2022/10/27 14:24:23;;;;;;;;;;;20.30;99.90;;;;;;5064835;28;20069;-64
2022/10/27 14:26:56;;;;;;;;;;;20.40;99.90;;;;;;5067190;28;20324;-63
2022/10/27 14:29:24;;;;;;;;;;;20.40;99.90;;;;;;5058463;28;21351;-63
2022/10/27 14:31:52;;;;;;;;;;;20.40;99.90;;;;;;5056960;28;20560;-63
2022/10/27 14:34:23;;;;;;;;;;;20.40;99.90;;;;;;5068439;28;19970;-63